createdAt,value
2022-11-06T00:00:32.751Z,18.50
2022-11-06T00:01:35.318Z,18.50
2022-11-06T00:02:37.709Z,18.50
2022-11-06T00:03:40.504Z,18.50
2022-11-06T00:04:42.852Z,18.50
2022-11-06T00:06:04.082Z,18.50
2022-11-06T00:07:07.750Z,18.50
2022-11-06T00:08:10.591Z,18.50
2022-11-06T00:09:15.099Z,18.50
2022-11-06T00:10:18.132Z,18.50
2022-11-06T00:11:21.083Z,18.50
2022-11-06T00:12:23.378Z,18.50
2022-11-06T00:13:25.857Z,18.50
2022-11-06T00:14:28.146Z,18.40
2022-11-06T00:15:31.016Z,18.40
2022-11-06T00:16:33.529Z,18.40
2022-11-06T00:17:35.791Z,18.40
2022-11-06T00:18:39.358Z,18.40
2022-11-06T00:19:41.619Z,18.40
2022-11-06T00:20:44.047Z,18.40
2022-11-06T00:21:46.581Z,18.40
2022-11-06T00:22:48.863Z,18.40
2022-11-06T00:23:52.329Z,18.40
2022-11-06T00:24:54.614Z,18.30
2022-11-06T00:25:56.982Z,18.30
2022-11-06T00:26:59.261Z,18.40
2022-11-06T00:28:01.616Z,18.30
2022-11-06T00:29:05.211Z,18.30
2022-11-06T00:30:09.640Z,17.80
2022-11-06T00:31:14.933Z,17.40
2022-11-06T00:32:17.214Z,17.10
2022-11-06T00:33:19.491Z,16.80
2022-11-06T00:34:21.789Z,16.60
2022-11-06T00:35:24.049Z,16.40
2022-11-06T00:36:30.124Z,16.30
2022-11-06T00:37:33.354Z,16.10
2022-11-06T00:38:35.924Z,16.10
2022-11-06T00:39:38.333Z,16.40
2022-11-06T00:40:40.614Z,16.50
2022-11-06T00:41:43.055Z,16.60
2022-11-06T00:42:45.621Z,16.70
2022-11-06T00:43:54.341Z,16.70
2022-11-06T00:44:57.014Z,16.80
2022-11-06T00:46:08.052Z,16.80
2022-11-06T00:47:11.911Z,16.80
2022-11-06T00:48:14.530Z,16.90
2022-11-06T00:49:17.237Z,16.90
2022-11-06T00:50:19.667Z,16.90
2022-11-06T00:51:24.859Z,16.90
2022-11-06T00:52:29.565Z,16.90
2022-11-06T00:53:32.012Z,16.90
2022-11-06T00:54:34.339Z,16.90
2022-11-06T00:55:36.621Z,16.90
2022-11-06T00:56:39.602Z,16.90
2022-11-06T00:57:42.021Z,16.90
2022-11-06T00:58:45.863Z,16.90
2022-11-06T00:59:48.210Z,16.80
2022-11-06T01:00:50.488Z,16.80
2022-11-06T01:01:52.817Z,16.90
2022-11-06T01:02:56.456Z,16.80
2022-11-06T01:04:04.735Z,16.80
2022-11-06T01:05:07.311Z,16.80
2022-11-06T01:06:21.778Z,16.80
2022-11-06T01:07:24.492Z,16.80
2022-11-06T01:08:26.809Z,16.80
2022-11-06T01:09:29.209Z,16.80
2022-11-06T01:10:31.765Z,16.80
2022-11-06T01:12:06.964Z,16.80
2022-11-06T01:13:01.620Z,16.80
2022-11-06T01:14:05.661Z,16.70
2022-11-06T01:15:08.478Z,16.70
2022-11-06T01:16:13.285Z,16.70
2022-11-06T01:17:15.740Z,16.70
2022-11-06T01:18:18.101Z,16.70
2022-11-06T01:19:21.540Z,16.70
2022-11-06T01:20:23.840Z,16.40
2022-11-06T01:21:36.321Z,16.00
2022-11-06T01:22:38.661Z,15.80
2022-11-06T01:23:43.076Z,15.60
2022-11-06T01:24:45.431Z,15.40
2022-11-06T01:26:01.429Z,15.30
2022-11-06T01:28:27.184Z,15.30
2022-11-06T01:29:29.493Z,15.60
2022-11-06T01:30:31.788Z,15.80
2022-11-06T01:31:35.313Z,15.90
2022-11-06T01:32:37.589Z,16.10
2022-11-06T01:33:40.681Z,16.10
2022-11-06T01:34:43.124Z,16.20
2022-11-06T01:35:47.207Z,16.30
2022-11-06T01:36:49.532Z,16.40
2022-11-06T01:37:51.881Z,16.40
2022-11-06T01:38:56.644Z,16.40
2022-11-06T01:39:59.020Z,16.50
2022-11-06T01:41:01.513Z,16.50
2022-11-06T01:42:04.024Z,16.50
2022-11-06T01:43:14.818Z,16.50
2022-11-06T01:44:35.483Z,16.60
2022-11-06T01:45:39.072Z,16.60
2022-11-06T01:46:41.631Z,16.60
2022-11-06T01:47:44.333Z,16.60
2022-11-06T01:48:50.344Z,16.60
2022-11-06T01:49:59.249Z,16.70
2022-11-06T01:51:01.780Z,16.60
2022-11-06T01:52:09.934Z,16.60
2022-11-06T01:53:13.311Z,16.70
2022-11-06T01:54:16.894Z,16.60
2022-11-06T01:55:24.730Z,16.60
2022-11-06T01:56:27.036Z,16.70
2022-11-06T01:57:29.366Z,16.70
2022-11-06T01:58:34.354Z,16.70
2022-11-06T01:59:42.577Z,16.70
2022-11-06T02:00:46.210Z,16.60
2022-11-06T02:01:48.596Z,16.70
2022-11-06T02:02:51.347Z,16.70
2022-11-06T02:04:14.387Z,16.60
2022-11-06T02:05:17.372Z,16.60
2022-11-06T02:06:19.937Z,16.70
2022-11-06T02:07:22.531Z,16.60
2022-11-06T02:08:25.895Z,16.60
2022-11-06T02:09:30.560Z,16.60
2022-11-06T02:10:33.483Z,16.60
2022-11-06T02:11:37.196Z,16.60
2022-11-06T02:12:46.874Z,16.60
2022-11-06T02:14:00.877Z,16.60
2022-11-06T02:15:26.671Z,16.60
2022-11-06T02:16:41.759Z,16.60
2022-11-06T02:17:59.771Z,16.50
2022-11-06T02:19:09.479Z,16.60
2022-11-06T02:20:20.268Z,16.60
2022-11-06T02:21:49.914Z,16.50
2022-11-06T02:23:43.494Z,16.60
2022-11-06T02:25:22.702Z,16.50
2022-11-06T02:26:56.464Z,16.50
2022-11-06T02:28:05.463Z,16.50
2022-11-06T02:29:11.271Z,16.50
2022-11-06T02:30:15.955Z,16.50
2022-11-06T02:31:24.631Z,16.50
2022-11-06T02:32:58.349Z,16.50
2022-11-06T02:34:05.445Z,16.50
2022-11-06T02:35:22.436Z,16.50
2022-11-06T02:36:32.802Z,16.50
2022-11-06T02:37:36.891Z,16.50
2022-11-06T02:38:47.310Z,16.50
2022-11-06T02:39:52.966Z,16.50
2022-11-06T02:41:16.128Z,16.50
2022-11-06T02:42:20.284Z,16.50
2022-11-06T02:43:35.096Z,16.50
2022-11-06T02:44:39.229Z,16.50
2022-11-06T02:45:50.521Z,16.50
2022-11-06T02:47:00.951Z,16.50
2022-11-06T02:48:06.756Z,16.50
2022-11-06T02:49:14.705Z,16.50
2022-11-06T02:50:29.951Z,16.50
2022-11-06T02:51:37.683Z,16.50
2022-11-06T02:52:57.628Z,16.60
2022-11-06T02:54:03.191Z,16.50
2022-11-06T02:55:18.461Z,16.50
2022-11-06T02:56:24.956Z,16.50
2022-11-06T02:57:28.998Z,16.50
2022-11-06T02:58:54.317Z,16.50
2022-11-06T03:00:05.240Z,16.50
2022-11-06T03:01:37.126Z,16.50
2022-11-06T03:02:59.846Z,16.50
2022-11-06T03:04:08.068Z,16.50
2022-11-06T03:05:13.528Z,16.50
2022-11-06T03:06:38.099Z,16.50
2022-11-06T03:07:55.042Z,16.50
2022-11-06T03:09:12.407Z,16.50
2022-11-06T03:10:14.903Z,16.50
2022-11-06T03:11:26.759Z,16.50
2022-11-06T03:12:42.835Z,16.50
2022-11-06T03:14:05.519Z,16.50
2022-11-06T03:15:10.989Z,16.40
2022-11-06T03:16:23.612Z,16.40
2022-11-06T03:17:46.865Z,16.40
2022-11-06T03:19:00.090Z,16.40
2022-11-06T03:20:15.952Z,16.40
2022-11-06T03:21:46.190Z,16.40
2022-11-06T03:23:20.696Z,16.40
2022-11-06T03:24:31.506Z,16.40
2022-11-06T03:25:47.720Z,16.40
2022-11-06T03:26:53.424Z,16.40
2022-11-06T03:28:13.058Z,16.40
2022-11-06T03:29:49.420Z,16.40
2022-11-06T03:30:55.977Z,16.40
2022-11-06T03:32:07.710Z,16.40
2022-11-06T03:33:23.109Z,16.40
2022-11-06T03:34:52.146Z,16.30
2022-11-06T03:36:04.492Z,16.30
2022-11-06T03:37:15.762Z,16.40
2022-11-06T03:38:32.077Z,16.30
2022-11-06T03:39:43.090Z,16.20
2022-11-06T03:40:50.706Z,16.30
2022-11-06T03:42:00.998Z,16.30
2022-11-06T03:43:08.413Z,16.40
2022-11-06T03:44:14.484Z,16.30
2022-11-06T03:45:22.157Z,16.30
2022-11-06T03:46:26.869Z,16.40
2022-11-06T03:47:42.252Z,16.40
2022-11-06T03:48:49.222Z,16.40
2022-11-06T03:50:05.160Z,16.20
2022-11-06T03:51:14.969Z,15.90
2022-11-06T03:52:28.372Z,15.60
2022-11-06T03:53:38.282Z,15.30
2022-11-06T03:54:55.141Z,15.10
2022-11-06T03:56:09.090Z,14.90
2022-11-06T03:57:38.788Z,14.80
2022-11-06T03:58:45.211Z,14.60
2022-11-06T03:59:53.113Z,14.60
2022-11-06T04:00:56.677Z,14.50
2022-11-06T04:02:00.794Z,14.50
2022-11-06T04:03:10.066Z,14.30
2022-11-06T04:04:21.699Z,14.30
2022-11-06T04:05:25.094Z,14.20
2022-11-06T04:06:35.166Z,14.20
2022-11-06T04:07:43.101Z,14.20
2022-11-06T04:09:07.548Z,14.20
2022-11-06T04:10:30.939Z,14.10
2022-11-06T04:11:54.186Z,14.00
2022-11-06T04:13:17.741Z,13.80
2022-11-06T04:14:23.027Z,13.70
2022-11-06T04:15:25.822Z,13.70
2022-11-06T04:16:41.204Z,13.70
2022-11-06T04:17:43.533Z,13.50
2022-11-06T04:18:45.790Z,13.50
2022-11-06T04:19:54.955Z,13.90
2022-11-06T04:21:25.988Z,14.40
2022-11-06T04:22:55.651Z,15.00
2022-11-06T04:24:16.792Z,15.50
2022-11-06T04:25:46.419Z,15.90
2022-11-06T04:27:02.843Z,16.20
2022-11-06T04:28:24.022Z,16.50
2022-11-06T04:29:41.063Z,16.70
2022-11-06T04:30:55.214Z,16.90
2022-11-06T04:32:34.453Z,17.10
2022-11-06T04:34:05.694Z,16.80
2022-11-06T04:35:35.430Z,16.00
2022-11-06T04:36:59.618Z,15.50
2022-11-06T04:38:04.777Z,15.20
2022-11-06T04:39:17.871Z,14.90
2022-11-06T04:40:53.933Z,14.70
2022-11-06T04:42:16.669Z,14.50
2022-11-06T04:43:31.392Z,14.60
2022-11-06T04:44:38.462Z,15.20
2022-11-06T04:45:46.434Z,15.60
2022-11-06T04:47:10.350Z,16.00
2022-11-06T04:48:14.266Z,16.30
2022-11-06T04:49:18.278Z,16.50
2022-11-06T04:50:24.711Z,16.70
2022-11-06T04:51:31.935Z,16.90
2022-11-06T04:52:36.856Z,17.10
2022-11-06T04:53:40.574Z,17.20
2022-11-06T04:54:44.534Z,17.40
2022-11-06T04:56:01.609Z,17.50
2022-11-06T04:57:04.602Z,17.70
2022-11-06T04:58:06.916Z,17.80
2022-11-06T04:59:14.263Z,17.90
2022-11-06T05:00:17.261Z,18.00
2022-11-06T05:01:19.772Z,18.10
2022-11-06T05:02:22.818Z,18.10
2022-11-06T05:03:25.276Z,18.20
2022-11-06T05:04:27.700Z,18.40
2022-11-06T05:05:29.972Z,18.50
2022-11-06T05:06:32.559Z,18.50
2022-11-06T05:07:34.900Z,18.70
2022-11-06T05:08:37.232Z,18.80
2022-11-06T05:09:39.567Z,18.90
2022-11-06T05:10:43.130Z,18.90
2022-11-06T05:11:45.728Z,19.00
2022-11-06T05:12:48.327Z,19.10
2022-11-06T05:13:50.772Z,19.10
2022-11-06T05:14:53.133Z,19.20
2022-11-06T05:15:57.452Z,19.20
2022-11-06T05:17:00.244Z,19.20
2022-11-06T05:18:02.619Z,19.20
2022-11-06T05:19:05.346Z,18.60
2022-11-06T05:20:08.040Z,17.80
2022-11-06T05:21:29.590Z,17.10
2022-11-06T05:22:50.757Z,16.60
2022-11-06T05:23:53.045Z,16.00
2022-11-06T05:24:55.457Z,15.70
2022-11-06T05:25:57.748Z,16.10
2022-11-06T05:27:00.113Z,16.50
2022-11-06T05:28:07.119Z,16.90
2022-11-06T05:29:10.649Z,17.20
2022-11-06T05:30:13.131Z,17.50
2022-11-06T05:31:15.466Z,17.70
2022-11-06T05:32:17.819Z,17.90
2022-11-06T05:33:20.103Z,18.10
2022-11-06T05:34:22.427Z,18.40
2022-11-06T05:35:24.730Z,18.50
2022-11-06T05:36:27.058Z,18.60
2022-11-06T05:37:29.456Z,18.70
2022-11-06T05:38:32.391Z,18.80
2022-11-06T05:39:38.968Z,18.80
2022-11-06T05:40:44.345Z,18.90
2022-11-06T05:41:46.719Z,18.90
2022-11-06T05:42:49.037Z,19.00
2022-11-06T05:43:51.289Z,19.00
2022-11-06T05:44:53.577Z,19.10
2022-11-06T05:45:55.930Z,19.10
2022-11-06T05:46:58.185Z,19.20
2022-11-06T05:48:00.509Z,19.20
2022-11-06T05:49:02.851Z,19.20
2022-11-06T05:50:05.604Z,19.30
2022-11-06T05:51:08.668Z,19.30
2022-11-06T05:52:11.004Z,19.30
2022-11-06T05:53:13.866Z,19.40
2022-11-06T05:54:16.171Z,19.30
2022-11-06T05:55:18.692Z,19.40
2022-11-06T05:56:21.087Z,19.40
2022-11-06T05:57:23.444Z,19.40
2022-11-06T05:58:26.786Z,19.50
2022-11-06T05:59:29.173Z,19.50
2022-11-06T06:00:31.497Z,19.50
2022-11-06T06:01:34.072Z,19.40
2022-11-06T06:02:37.580Z,19.40
2022-11-06T06:03:39.999Z,19.30
2022-11-06T06:04:42.334Z,19.30
2022-11-06T06:05:44.632Z,19.30
2022-11-06T06:06:47.265Z,19.30
2022-11-06T06:07:49.608Z,19.30
2022-11-06T06:08:51.905Z,19.30
2022-11-06T06:09:54.354Z,19.20
2022-11-06T06:10:56.690Z,19.30
2022-11-06T06:11:59.081Z,19.40
2022-11-06T06:13:01.397Z,19.50
2022-11-06T06:14:03.725Z,19.60
2022-11-06T06:15:07.398Z,19.60
2022-11-06T06:16:09.672Z,19.60
2022-11-06T06:17:12.003Z,19.70
2022-11-06T06:18:14.469Z,19.70
2022-11-06T06:19:17.151Z,19.70
2022-11-06T06:20:19.529Z,19.70
2022-11-06T06:21:21.855Z,19.80
2022-11-06T06:22:24.205Z,19.80
2022-11-06T06:23:26.613Z,19.80
2022-11-06T06:24:28.983Z,19.80
2022-11-06T06:25:31.630Z,19.80
2022-11-06T06:26:33.912Z,19.80
2022-11-06T06:27:37.567Z,19.90
2022-11-06T06:28:39.930Z,19.90
2022-11-06T06:29:42.227Z,19.90
2022-11-06T06:30:44.553Z,19.90
2022-11-06T06:31:46.961Z,19.90
2022-11-06T06:32:52.444Z,20.00
2022-11-06T06:33:54.799Z,20.00
2022-11-06T06:34:57.085Z,20.00
2022-11-06T06:36:02.210Z,20.00
2022-11-06T06:37:04.759Z,20.00
2022-11-06T06:38:07.056Z,20.00
2022-11-06T06:39:09.357Z,20.00
2022-11-06T06:40:11.938Z,20.10
2022-11-06T06:41:14.258Z,20.10
2022-11-06T06:42:16.519Z,20.10
2022-11-06T06:43:18.840Z,20.20
2022-11-06T06:44:21.210Z,20.20
2022-11-06T06:45:24.490Z,20.20
2022-11-06T06:46:26.841Z,20.20
2022-11-06T06:47:29.185Z,20.20
2022-11-06T06:48:32.024Z,20.20
2022-11-06T06:49:35.708Z,20.30
2022-11-06T06:50:38.200Z,20.20
2022-11-06T06:51:40.526Z,20.30
2022-11-06T06:52:42.790Z,20.30
2022-11-06T06:53:45.122Z,20.30
2022-11-06T06:54:47.401Z,20.30
2022-11-06T06:55:49.765Z,20.20
2022-11-06T06:56:52.175Z,20.10
2022-11-06T06:58:01.634Z,20.00
2022-11-06T06:59:03.993Z,20.00
2022-11-06T07:00:07.056Z,19.90
2022-11-06T07:01:10.862Z,19.80
2022-11-06T07:02:13.480Z,19.60
2022-11-06T07:03:15.887Z,19.50
2022-11-06T07:04:18.234Z,19.50
2022-11-06T07:05:20.841Z,19.70
2022-11-06T07:06:23.310Z,19.80
2022-11-06T07:07:25.608Z,19.80
2022-11-06T07:08:28.490Z,19.90
2022-11-06T07:09:32.076Z,20.00
2022-11-06T07:10:34.417Z,20.00
2022-11-06T07:11:36.843Z,20.10
2022-11-06T07:12:39.165Z,20.20
2022-11-06T07:13:41.502Z,20.20
2022-11-06T07:14:43.818Z,20.30
2022-11-06T07:15:46.156Z,20.30
2022-11-06T07:16:53.410Z,20.30
2022-11-06T07:18:00.794Z,20.30
2022-11-06T07:19:03.122Z,20.40
2022-11-06T07:20:06.167Z,20.40
2022-11-06T07:21:10.779Z,20.50
2022-11-06T07:22:13.053Z,20.50
2022-11-06T07:23:15.359Z,20.50
2022-11-06T07:24:18.136Z,20.50
2022-11-06T07:25:20.413Z,20.50
2022-11-06T07:26:22.745Z,20.50
2022-11-06T07:27:25.221Z,20.50
2022-11-06T07:28:27.555Z,20.50
2022-11-06T07:29:29.923Z,20.60
2022-11-06T07:30:32.959Z,20.60
2022-11-06T07:31:35.241Z,20.60
2022-11-06T07:32:37.634Z,20.60
2022-11-06T07:33:40.333Z,20.60
2022-11-06T07:34:42.662Z,20.70
2022-11-06T07:35:45.007Z,20.70
2022-11-06T07:36:47.355Z,20.70
2022-11-06T07:37:49.636Z,20.70
2022-11-06T07:38:52.457Z,20.70
2022-11-06T07:39:54.765Z,20.70
2022-11-06T07:41:01.848Z,20.70
2022-11-06T07:42:04.303Z,20.70
2022-11-06T07:43:11.966Z,20.70
2022-11-06T07:44:14.409Z,20.70
2022-11-06T07:45:16.820Z,20.70
2022-11-06T07:46:19.115Z,20.60
2022-11-06T07:47:22.531Z,20.50
2022-11-06T07:48:24.816Z,20.50
2022-11-06T07:49:27.175Z,20.50
2022-11-06T07:50:30.257Z,20.50
2022-11-06T07:51:32.558Z,20.50
2022-11-06T07:52:34.888Z,20.50
2022-11-06T07:53:38.246Z,20.50
2022-11-06T07:54:40.524Z,20.50
2022-11-06T07:55:53.489Z,20.50
2022-11-06T07:56:55.808Z,20.50
2022-11-06T07:57:59.530Z,20.60
2022-11-06T07:59:01.871Z,20.60
2022-11-06T08:00:05.975Z,20.70
2022-11-06T08:01:18.835Z,20.70
2022-11-06T08:02:21.576Z,20.80
2022-11-06T08:03:25.735Z,20.70
2022-11-06T08:04:28.115Z,20.70
2022-11-06T08:05:30.405Z,20.70
2022-11-06T08:06:32.821Z,20.70
2022-11-06T08:07:35.184Z,20.80
2022-11-06T08:08:37.956Z,20.80
2022-11-06T08:09:40.360Z,20.80
2022-11-06T08:10:47.600Z,20.80
2022-11-06T08:11:49.926Z,20.90
2022-11-06T08:12:52.210Z,20.90
2022-11-06T08:13:54.497Z,20.80
2022-11-06T08:14:56.809Z,20.80
2022-11-06T08:15:59.278Z,20.60
2022-11-06T08:17:01.627Z,20.50
2022-11-06T08:18:04.798Z,20.60
2022-11-06T08:19:07.165Z,20.60
2022-11-06T08:20:10.023Z,20.70
2022-11-06T08:21:12.336Z,20.70
2022-11-06T08:22:15.012Z,20.80
2022-11-06T08:23:19.276Z,20.80
2022-11-06T08:24:22.304Z,20.80
2022-11-06T08:25:24.756Z,20.80
2022-11-06T08:26:27.541Z,20.80
2022-11-06T08:27:29.847Z,20.80
2022-11-06T08:28:32.370Z,20.90
2022-11-06T08:29:38.364Z,20.90
2022-11-06T08:30:43.562Z,20.90
2022-11-06T08:31:46.670Z,21.00
2022-11-06T08:32:49.389Z,20.90
2022-11-06T08:33:53.250Z,20.60
2022-11-06T08:34:55.611Z,20.20
2022-11-06T08:36:05.192Z,19.80
2022-11-06T08:37:08.977Z,19.50
2022-11-06T08:38:11.694Z,19.20
2022-11-06T08:39:14.204Z,18.90
2022-11-06T08:40:16.652Z,18.80
2022-11-06T08:41:19.046Z,19.00
2022-11-06T08:42:21.337Z,19.20
2022-11-06T08:43:26.352Z,19.50
2022-11-06T08:44:28.615Z,19.70
2022-11-06T08:45:31.570Z,19.90
2022-11-06T08:46:33.936Z,20.00
2022-11-06T08:47:36.244Z,20.20
2022-11-06T08:48:38.584Z,20.30
2022-11-06T08:49:41.213Z,20.40
2022-11-06T08:50:43.546Z,20.40
2022-11-06T08:51:46.157Z,20.50
2022-11-06T08:52:48.477Z,20.60
2022-11-06T08:53:50.921Z,20.60
2022-11-06T08:54:53.419Z,20.70
2022-11-06T08:55:55.684Z,20.70
2022-11-06T08:56:58.478Z,20.80
2022-11-06T08:58:01.124Z,20.80
2022-11-06T08:59:03.463Z,20.90
2022-11-06T09:00:06.396Z,20.90
2022-11-06T09:01:09.804Z,20.90
2022-11-06T09:02:13.807Z,20.90
2022-11-06T09:03:20.377Z,20.90
2022-11-06T09:04:22.770Z,21.00
2022-11-06T09:05:25.223Z,21.00
2022-11-06T09:06:27.645Z,21.00
2022-11-06T09:07:29.970Z,21.00
2022-11-06T09:08:32.629Z,21.00
2022-11-06T09:09:35.330Z,21.10
2022-11-06T09:10:39.328Z,21.10
2022-11-06T09:11:42.041Z,21.10
2022-11-06T09:12:44.504Z,21.00
2022-11-06T09:13:47.075Z,21.00
2022-11-06T09:14:49.346Z,21.00
2022-11-06T09:15:51.624Z,21.10
2022-11-06T09:16:54.310Z,21.10
2022-11-06T09:17:56.842Z,21.10
2022-11-06T09:18:59.329Z,21.10
2022-11-06T09:20:02.009Z,21.10
2022-11-06T09:21:04.677Z,21.10
2022-11-06T09:22:08.367Z,21.20
2022-11-06T09:23:15.015Z,21.20
2022-11-06T09:24:27.398Z,21.20
2022-11-06T09:25:39.964Z,21.20
2022-11-06T09:26:42.586Z,21.20
2022-11-06T09:27:47.090Z,21.20
2022-11-06T09:28:49.384Z,21.20
2022-11-06T09:29:51.661Z,21.10
2022-11-06T09:30:55.275Z,21.10
2022-11-06T09:31:57.737Z,21.20
2022-11-06T09:33:02.246Z,21.20
2022-11-06T09:34:04.593Z,21.20
2022-11-06T09:35:07.190Z,21.20
2022-11-06T09:36:09.646Z,21.30
2022-11-06T09:37:11.933Z,21.30
2022-11-06T09:38:17.284Z,21.30
2022-11-06T09:39:19.653Z,21.30
2022-11-06T09:40:45.372Z,21.30
2022-11-06T09:41:59.664Z,21.30
2022-11-06T09:43:43.212Z,21.40
2022-11-06T09:45:05.058Z,21.40
2022-11-06T09:46:28.618Z,21.30
2022-11-06T09:47:37.670Z,21.30
2022-11-06T09:48:44.148Z,21.40
2022-11-06T09:49:57.260Z,21.40
2022-11-06T09:51:14.808Z,21.40
2022-11-06T09:52:29.516Z,21.30
2022-11-06T09:53:38.495Z,21.40
2022-11-06T09:54:56.164Z,21.40
2022-11-06T09:56:02.753Z,21.40
2022-11-06T09:57:15.534Z,21.40
2022-11-06T09:58:28.672Z,21.40
2022-11-06T09:59:35.806Z,21.40
2022-11-06T10:00:40.119Z,21.40
2022-11-06T10:01:58.668Z,21.40
2022-11-06T10:03:06.336Z,21.40
2022-11-06T10:04:26.576Z,21.50
2022-11-06T10:05:33.224Z,21.50
2022-11-06T10:06:36.218Z,21.50
2022-11-06T10:07:41.267Z,21.50
2022-11-06T10:08:44.247Z,21.50
2022-11-06T10:09:46.558Z,21.50
2022-11-06T10:11:13.622Z,21.50
2022-11-06T10:12:29.702Z,21.50
2022-11-06T10:13:52.060Z,21.50
2022-11-06T10:15:07.863Z,21.50
2022-11-06T10:16:36.208Z,21.50
2022-11-06T10:17:44.034Z,21.50
2022-11-06T10:19:26.521Z,21.50
2022-11-06T10:20:43.657Z,21.50
2022-11-06T10:21:48.590Z,21.50
2022-11-06T10:23:05.113Z,21.50
2022-11-06T10:24:42.922Z,21.50
2022-11-06T10:25:51.357Z,21.50
2022-11-06T10:26:56.565Z,21.60
2022-11-06T10:28:03.064Z,21.60
2022-11-06T10:29:23.601Z,21.60
2022-11-06T10:30:29.876Z,21.60
2022-11-06T10:31:41.229Z,21.60
2022-11-06T10:33:18.567Z,21.60
2022-11-06T10:34:29.690Z,21.50
2022-11-06T10:35:50.776Z,21.50
2022-11-06T10:36:59.121Z,21.50
2022-11-06T10:38:12.458Z,21.60
2022-11-06T10:39:26.459Z,21.60
2022-11-06T10:40:31.493Z,21.60
2022-11-06T10:41:35.900Z,21.60
2022-11-06T10:42:41.412Z,21.60
2022-11-06T10:43:54.791Z,21.60
2022-11-06T10:45:05.711Z,21.60
2022-11-06T10:46:32.324Z,21.70
2022-11-06T10:48:00.168Z,21.70
2022-11-06T10:49:11.585Z,21.70
2022-11-06T10:50:15.356Z,21.70
2022-11-06T10:51:59.815Z,21.70
2022-11-06T10:53:36.776Z,21.70
2022-11-06T10:55:12.479Z,21.70
2022-11-06T10:56:31.629Z,21.70
2022-11-06T10:57:59.115Z,21.70
2022-11-06T10:59:01.630Z,21.70
2022-11-06T11:00:11.837Z,21.80
2022-11-06T11:01:15.306Z,21.80
2022-11-06T11:02:32.015Z,21.70
2022-11-06T11:03:35.862Z,21.80
2022-11-06T11:04:38.205Z,21.80
2022-11-06T11:05:43.042Z,21.80
2022-11-06T11:06:45.564Z,21.80
2022-11-06T11:07:49.794Z,21.80
2022-11-06T11:08:52.472Z,21.80
2022-11-06T11:09:57.813Z,21.70
2022-11-06T11:11:15.400Z,21.80
2022-11-06T11:12:35.756Z,21.80
2022-11-06T11:13:38.143Z,21.80
2022-11-06T11:14:40.603Z,21.80
2022-11-06T11:15:48.600Z,21.80
2022-11-06T11:16:51.809Z,21.80
2022-11-06T11:18:12.563Z,21.80
2022-11-06T11:19:35.643Z,21.80
2022-11-06T11:20:40.390Z,21.80
2022-11-06T11:22:00.008Z,21.80
2022-11-06T11:23:19.813Z,21.80
2022-11-06T11:24:23.943Z,21.90
2022-11-06T11:25:26.272Z,21.90
2022-11-06T11:26:31.075Z,21.90
2022-11-06T11:27:53.928Z,21.90
2022-11-06T11:28:58.917Z,21.90
2022-11-06T11:30:04.372Z,21.80
2022-11-06T11:31:11.855Z,21.80
2022-11-06T11:32:17.311Z,21.90
2022-11-06T11:33:23.349Z,21.90
2022-11-06T11:34:29.260Z,21.90
2022-11-06T11:35:31.965Z,21.90
2022-11-06T11:36:54.422Z,21.90
2022-11-06T11:38:10.869Z,21.90
2022-11-06T11:39:18.748Z,21.90
2022-11-06T11:40:23.814Z,21.90
2022-11-06T11:41:26.429Z,21.80
2022-11-06T11:42:31.295Z,21.90
2022-11-06T11:43:33.652Z,21.80
2022-11-06T11:44:36.045Z,21.80
2022-11-06T11:45:38.472Z,21.80
2022-11-06T11:46:54.269Z,21.80
2022-11-06T11:48:13.753Z,21.80
2022-11-06T11:49:26.493Z,21.70
2022-11-06T11:50:32.098Z,21.60
2022-11-06T11:51:47.289Z,21.60
2022-11-06T11:52:55.423Z,21.70
2022-11-06T11:54:04.063Z,21.70
2022-11-06T11:55:16.424Z,21.80
2022-11-06T11:56:42.546Z,21.80
2022-11-06T11:57:48.875Z,21.80
2022-11-06T11:58:56.960Z,21.80
2022-11-06T12:00:06.109Z,21.90
2022-11-06T12:01:09.248Z,21.90
2022-11-06T12:02:26.570Z,21.90
2022-11-06T12:03:41.783Z,21.90
2022-11-06T12:04:46.981Z,21.90
2022-11-06T12:05:49.325Z,21.90
2022-11-06T12:06:55.194Z,21.90
2022-11-06T12:07:58.969Z,22.00
2022-11-06T12:09:01.600Z,22.00
2022-11-06T12:10:27.018Z,22.00
2022-11-06T12:11:30.521Z,22.00
2022-11-06T12:12:34.238Z,21.90
2022-11-06T12:13:36.791Z,21.80
2022-11-06T12:14:39.960Z,21.70
2022-11-06T12:16:02.688Z,21.70
2022-11-06T12:17:25.093Z,21.50
2022-11-06T12:19:04.669Z,21.00
2022-11-06T12:20:17.629Z,20.50
2022-11-06T12:21:35.860Z,20.30
2022-11-06T12:22:42.990Z,20.30
2022-11-06T12:23:51.427Z,20.50
2022-11-06T12:25:26.315Z,20.60
2022-11-06T12:26:48.255Z,20.70
2022-11-06T12:27:57.768Z,20.80
2022-11-06T12:29:17.108Z,20.80
2022-11-06T12:30:20.654Z,20.90
2022-11-06T12:31:59.645Z,21.00
2022-11-06T12:33:11.032Z,21.10
2022-11-06T12:34:19.580Z,21.10
2022-11-06T12:35:47.620Z,21.10
2022-11-06T12:37:18.214Z,21.10
2022-11-06T12:38:37.692Z,21.10
2022-11-06T12:39:42.461Z,21.10
2022-11-06T12:41:01.156Z,21.20
2022-11-06T12:42:06.367Z,21.10
2022-11-06T12:43:20.375Z,21.10
2022-11-06T12:44:22.726Z,21.20
2022-11-06T12:45:37.611Z,21.10
2022-11-06T12:47:00.188Z,21.10
2022-11-06T12:48:21.699Z,21.10
2022-11-06T12:49:36.197Z,21.20
2022-11-06T12:50:49.063Z,21.20
2022-11-06T12:52:06.338Z,21.20
2022-11-06T12:53:29.598Z,21.20
2022-11-06T12:54:54.457Z,21.20
2022-11-06T12:56:22.998Z,21.20
2022-11-06T12:57:30.827Z,21.20
2022-11-06T12:59:00.918Z,21.20
2022-11-06T13:00:17.742Z,21.20
2022-11-06T13:01:45.017Z,21.20
2022-11-06T13:03:18.921Z,21.20
2022-11-06T13:04:41.953Z,21.20
2022-11-06T13:06:25.226Z,21.20
2022-11-06T13:07:46.368Z,21.30
2022-11-06T13:09:07.938Z,21.20
2022-11-06T13:10:39.621Z,21.30
2022-11-06T13:11:41.917Z,21.20
2022-11-06T13:12:52.712Z,21.30
2022-11-06T13:14:19.884Z,21.30
2022-11-06T13:15:48.652Z,21.30
2022-11-06T13:17:00.838Z,21.30
2022-11-06T13:18:15.084Z,21.20
2022-11-06T13:19:34.624Z,21.30
2022-11-06T13:21:10.151Z,21.30
2022-11-06T13:22:42.595Z,21.30
2022-11-06T13:23:50.505Z,21.40
2022-11-06T13:25:14.875Z,21.30
2022-11-06T13:26:33.596Z,21.40
2022-11-06T13:28:01.848Z,21.30
2022-11-06T13:29:09.132Z,21.30
2022-11-06T13:30:22.374Z,21.30
2022-11-06T13:31:53.132Z,21.30
2022-11-06T13:33:10.098Z,21.30
2022-11-06T13:34:19.829Z,21.30
2022-11-06T13:35:23.307Z,21.30
2022-11-06T13:36:27.984Z,21.30
2022-11-06T13:37:39.738Z,21.30
2022-11-06T13:39:03.944Z,21.30
2022-11-06T13:40:32.589Z,21.30
2022-11-06T13:41:34.925Z,21.20
2022-11-06T13:42:57.491Z,21.30
2022-11-06T13:44:02.777Z,21.20
2022-11-06T13:45:07.728Z,21.30
2022-11-06T13:46:49.789Z,21.30
2022-11-06T13:48:06.905Z,21.20
2022-11-06T13:49:16.806Z,21.30
2022-11-06T13:50:43.033Z,21.30
2022-11-06T13:51:55.900Z,21.30
2022-11-06T13:53:05.562Z,21.30
2022-11-06T13:54:19.973Z,21.30
2022-11-06T13:55:41.223Z,21.30
2022-11-06T13:57:09.838Z,21.30
2022-11-06T13:58:52.172Z,21.30
2022-11-06T14:00:09.860Z,21.30
2022-11-06T14:01:24.520Z,21.30
2022-11-06T14:02:46.735Z,21.30
2022-11-06T14:04:07.552Z,21.30
2022-11-06T14:05:43.439Z,21.30
2022-11-06T14:06:47.562Z,21.40
2022-11-06T14:07:52.393Z,21.40
2022-11-06T14:09:01.648Z,21.50
2022-11-06T14:10:05.418Z,21.60
2022-11-06T14:11:15.169Z,21.40
2022-11-06T14:12:22.752Z,21.00
2022-11-06T14:13:27.958Z,20.70
2022-11-06T14:14:32.877Z,20.40
2022-11-06T14:15:41.911Z,20.20
2022-11-06T14:16:44.316Z,20.00
2022-11-06T14:17:58.287Z,20.10
2022-11-06T14:19:27.697Z,20.40
2022-11-06T14:20:32.556Z,20.60
2022-11-06T14:21:37.669Z,20.70
2022-11-06T14:22:40.029Z,20.80
2022-11-06T14:23:45.987Z,20.80
2022-11-06T14:24:48.306Z,20.90
2022-11-06T14:26:02.040Z,20.90
2022-11-06T14:27:23.844Z,21.00
2022-11-06T14:28:35.006Z,21.00
2022-11-06T14:29:37.278Z,21.00
2022-11-06T14:32:21.403Z,21.10
2022-11-06T14:33:59.042Z,21.10
2022-11-06T14:35:29.266Z,21.20
2022-11-06T14:36:35.573Z,21.20
2022-11-06T14:37:43.834Z,21.20
2022-11-06T14:38:46.388Z,21.20
2022-11-06T14:39:51.589Z,21.20
2022-11-06T14:40:53.865Z,21.20
2022-11-06T14:41:58.126Z,21.30
2022-11-06T14:43:00.525Z,21.20
2022-11-06T14:44:21.083Z,21.20
2022-11-06T14:45:23.423Z,21.20
2022-11-06T14:46:25.887Z,21.30
2022-11-06T14:47:31.621Z,21.30
2022-11-06T14:48:40.630Z,21.30
2022-11-06T14:49:51.013Z,21.30